Time;durP1;ratioP1;P1;durP2;ratioP2;P2;SDS_P1;SDS_P2;PMS_P1;PMS_P2;Temp;Humidity;BMP_temperature;BMP_pressure;BME280_temperature;BME280_humidity;BME280_pressure;Samples;Min_cycle;Max_cycle;Signal;HPM_P1;HPM_P2
2022/03/31 00:00:58;;;;;;;0.60;0.60;;;10.30;70.80;;;9.43;58.03;93145.88;5034096;28;20685;-85
2022/03/31 00:03:25;;;;;;;0.60;0.60;;;10.30;70.90;;;9.39;57.57;93146.59;5053701;28;20201;-84
2022/03/31 00:05:52;;;;;;;0.60;0.60;;;10.30;70.90;;;9.34;57.85;93142.03;5070521;28;20283;-84
2022/03/31 00:08:21;;;;;;;0.50;0.50;;;10.20;70.80;;;9.26;58.17;93131.91;5056857;28;20207;-84
2022/03/31 00:10:55;;;;;;;0.60;0.60;;;10.20;71.10;;;9.17;58.01;93131.47;5069902;28;20195;-84
2022/03/31 00:13:27;;;;;;;0.70;0.70;;;10.20;71.40;;;9.21;58.24;93137.81;5053856;28;20283;-85
2022/03/31 00:15:57;;;;;;;0.70;0.70;;;10.10;71.20;;;9.03;58.54;93119.63;5053821;28;20196;-85
2022/03/31 00:18:31;;;;;;;0.50;0.50;;;10.10;71.20;;;9.11;58.65;93135.75;5054500;28;20237;-85
2022/03/31 00:20:58;;;;;;;0.52;0.52;;;10.00;71.60;;;9.04;58.61;93129.06;5066643;28;20207;-84
2022/03/31 00:23:26;;;;;;;0.50;0.50;;;10.00;71.30;;;9.05;59.36;93131.44;5053262;28;20196;-84
2022/03/31 00:25:53;;;;;;;0.80;0.80;;;9.90;72.90;;;9.02;59.50;93131.91;5069678;28;20686;-84
2022/03/31 00:28:21;;;;;;;0.60;0.60;;;9.90;73.10;;;9.01;59.98;93126.88;5053546;28;20746;-84
2022/03/31 00:30:49;;;;;;;0.60;0.60;;;9.90;73.40;;;9.03;60.17;93123.00;5052598;28;20606;-85
2022/03/31 00:33:16;;;;;;;0.50;0.50;;;9.80;73.40;;;9.02;60.09;93124.06;5053058;28;20196;-85
2022/03/31 00:35:43;;;;;;;0.50;0.50;;;9.80;73.50;;;9.03;60.23;93125.63;5053223;28;20215;-83
2022/03/31 00:38:11;;;;;;;0.60;0.60;;;9.80;74.50;;;9.02;59.89;93124.06;5053478;28;20196;-85
2022/03/31 00:40:40;;;;;;;0.60;0.60;;;9.80;73.50;;;9.00;59.13;93115.63;5049271;28;20290;-85
2022/03/31 00:43:08;;;;;;;0.50;0.50;;;9.80;73.40;;;8.94;59.49;93109.47;5052256;28;20192;-85
2022/03/31 00:45:46;;;;;;;0.50;0.50;;;9.70;73.30;;;8.88;59.69;93107.78;5053179;28;20218;-84
2022/03/31 00:48:17;;;;;;;0.50;0.50;;;9.70;73.40;;;8.95;60.08;93124.16;5038026;28;20282;-84
2022/03/31 00:50:45;;;;;;;0.60;0.60;;;9.80;74.00;;;8.89;60.43;93109.38;5053157;28;20669;-85
2022/03/31 00:53:12;;;;;;;0.60;0.60;;;9.70;74.00;;;8.97;60.26;93119.50;5073205;28;20610;-84
2022/03/31 00:55:56;;;;;;;0.50;0.50;;;9.80;74.00;;;9.02;60.18;93124.06;5072569;28;20191;-85
2022/03/31 00:58:23;;;;;;;0.50;0.50;;;9.70;74.00;;;9.04;60.45;93119.38;5087842;28;20554;-85
2022/03/31 01:00:50;;;;;;;0.60;0.60;;;9.70;74.20;;;8.89;60.30;93088.44;5039236;28;20306;-84
2022/03/31 01:03:18;;;;;;;0.60;0.60;;;9.70;74.20;;;9.11;60.17;93112.22;5038465;28;20199;-84
2022/03/31 01:05:45;;;;;;;0.60;0.60;;;9.70;74.30;;;8.97;60.23;93093.34;5052935;28;20619;-84
2022/03/31 01:08:12;;;;;;;0.70;0.70;;;9.80;74.20;;;9.16;59.91;93113.38;5049453;28;20192;-85
2022/03/31 01:10:40;;;;;;;0.50;0.50;;;9.80;74.20;;;9.15;59.78;93107.34;5051622;28;20204;-84
2022/03/31 01:13:08;;;;;;;0.60;0.60;;;9.80;74.20;;;9.16;59.63;93110.75;5068997;28;20292;-85
2022/03/31 01:15:36;;;;;;;0.50;0.50;;;9.80;74.00;;;9.18;59.79;93108.69;5052491;28;20212;-85
2022/03/31 01:18:05;;;;;;;0.40;0.40;;;9.80;74.10;;;9.17;59.80;93107.91;5065072;28;20196;-85
2022/03/31 01:20:33;;;;;;;0.50;0.50;;;9.80;74.20;;;9.18;60.24;93112.13;5061930;28;20322;-85
2022/03/31 01:23:01;;;;;;;0.60;0.60;;;9.80;74.20;;;9.24;60.15;93113.00;5072551;28;20211;-84
2022/03/31 01:25:28;;;;;;;0.52;0.52;;;9.80;74.40;;;9.26;60.41;93103.13;5072086;28;20219;-84
2022/03/31 01:27:57;;;;;;;0.50;0.50;;;9.90;74.60;;;9.31;60.22;93105.84;5036738;28;20210;-84
2022/03/31 01:30:24;;;;;;;0.57;0.57;;;9.90;74.60;;;9.35;60.09;93093.94;5032690;28;20271;-85
2022/03/31 01:32:52;;;;;;;0.70;0.70;;;9.90;74.70;;;9.38;60.19;93085.59;5048824;28;20193;-85
2022/03/31 01:35:19;;;;;;;0.50;0.50;;;10.00;73.40;;;9.40;60.25;93080.16;5048808;28;20228;-84
2022/03/31 01:37:47;;;;;;;0.50;0.50;;;10.00;73.40;;;9.45;60.11;93083.66;5035088;28;20196;-84
2022/03/31 01:40:14;;;;;;;0.60;0.60;;;10.00;73.30;;;9.47;60.10;93086.03;5066943;28;20286;-84
2022/03/31 01:42:44;;;;;;;0.50;0.50;;;10.00;73.30;;;9.48;60.38;93087.63;5085786;28;20638;-84
2022/03/31 01:45:14;;;;;;;0.60;0.60;;;10.20;73.60;;;9.50;60.26;93080.34;5052015;28;20215;-85
2022/03/31 01:47:44;;;;;;;0.60;0.60;;;10.10;73.70;;;9.55;60.64;93074.44;5048255;28;20306;-85
2022/03/31 01:50:13;;;;;;;0.50;0.50;;;10.10;74.00;;;9.59;60.35;93063.28;5059400;28;20248;-84
2022/03/31 01:52:41;;;;;;;0.70;0.70;;;10.20;73.80;;;9.60;60.56;93062.22;5048074;28;20287;-84
2022/03/31 01:55:09;;;;;;;0.57;0.57;;;10.20;73.80;;;9.69;60.09;93073.16;5030792;28;20228;-85
2022/03/31 01:57:37;;;;;;;0.50;0.50;;;10.20;73.70;;;9.71;59.79;93067.69;5049937;28;20204;-85
2022/03/31 02:00:07;;;;;;;0.70;0.70;;;10.30;73.70;;;9.74;59.89;93073.25;5048800;28;20224;-84
2022/03/31 02:02:43;;;;;;;0.60;0.60;;;10.30;73.90;;;9.77;59.82;93072.78;5032261;28;20667;-85
2022/03/31 02:05:12;;;;;;;0.70;0.70;;;10.30;73.60;;;9.81;60.03;93072.31;5048388;28;20216;-84
2022/03/31 02:07:39;;;;;;;0.55;0.55;;;10.30;73.70;;;9.79;59.86;93059.47;5079519;28;20291;-85
2022/03/31 02:10:11;;;;;;;0.70;0.70;;;10.40;73.80;;;9.82;59.90;93053.75;5015802;28;20398;-84
2022/03/31 02:12:40;;;;;;;0.60;0.60;;;10.40;74.30;;;9.90;59.96;93058.63;5030750;28;20246;-85
2022/03/31 02:15:11;;;;;;;0.60;0.60;;;10.40;73.90;;;9.99;59.85;93064.28;5048026;28;20300;-85
2022/03/31 02:17:39;;;;;;;0.60;0.60;;;10.50;73.90;;;10.03;59.91;93068.06;5035448;28;20222;-84
2022/03/31 02:20:07;;;;;;;0.50;0.50;;;10.50;73.70;;;10.01;59.83;93061.44;5023936;28;20276;-85
2022/03/31 02:22:34;;;;;;;0.50;0.50;;;10.60;73.80;;;10.03;59.39;93065.44;5055292;28;20277;-85
2022/03/31 02:25:02;;;;;;;0.60;0.60;;;10.60;73.70;;;9.99;59.79;93053.81;5031164;28;20215;-84
2022/03/31 02:27:29;;;;;;;0.50;0.50;;;10.60;73.70;;;10.02;59.33;93050.75;5051084;28;20203;-85
2022/03/31 02:29:56;;;;;;;0.55;0.55;;;10.60;73.60;;;10.14;59.64;93062.97;5034861;28;20215;-85
2022/03/31 02:32:23;;;;;;;0.60;0.60;;;10.70;73.80;;;10.19;59.65;93066.50;5051926;28;20719;-85
2022/03/31 02:34:52;;;;;;;0.40;0.40;;;10.70;73.80;;;10.22;59.61;93070.47;5051213;28;20693;-86
2022/03/31 02:37:19;;;;;;;0.50;0.50;;;10.70;73.70;;;10.24;59.52;93071.00;5051085;28;20203;-85
2022/03/31 02:39:46;;;;;;;0.70;0.70;;;10.70;73.60;;;10.25;59.39;93072.59;5064214;28;20850;-85
2022/03/31 02:42:13;;;;;;;0.80;0.80;;;10.70;73.50;;;10.25;59.54;93068.19;5044264;28;20201;-85
2022/03/31 02:44:40;;;;;;;0.50;0.50;;;10.80;73.60;;;10.24;59.56;93057.91;5027370;28;20223;-85
2022/03/31 02:47:09;;;;;;;0.50;0.50;;;10.80;73.50;;;10.28;59.42;93063.47;5034900;28;20196;-86
2022/03/31 02:49:36;;;;;;;0.50;0.50;;;10.80;73.50;;;10.28;59.25;93058.22;5034875;28;20215;-85
2022/03/31 02:52:04;;;;;;;0.70;0.70;;;10.80;73.50;;;10.29;59.28;93057.22;5048023;28;20231;-85
2022/03/31 02:57:18;;;;;;;0.50;0.50;;;10.80;73.40;;;10.23;59.12;93041.41;5047930;28;20200;-85
2022/03/31 02:59:45;;;;;;;0.50;0.50;;;10.80;73.30;;;10.32;59.44;93051.50;5048030;28;20229;-85
2022/03/31 03:02:13;;;;;;;0.50;0.50;;;10.90;73.50;;;10.30;59.38;93050.94;5045373;28;20242;-84
2022/03/31 03:04:40;;;;;;;0.50;0.50;;;10.80;73.40;;;10.35;59.18;93045.78;5067931;28;20216;-86
2022/03/31 03:07:08;;;;;;;0.60;0.60;;;10.90;73.50;;;10.35;59.68;93038.72;5053135;28;20485;-85
2022/03/31 03:09:36;;;;;;;0.70;0.70;;;10.90;73.40;;;10.37;59.37;93036.69;5055627;28;20221;-85
2022/03/31 03:12:05;;;;;;;0.50;0.50;;;10.90;73.50;;;10.40;59.51;93036.22;5034643;28;20209;-86
2022/03/31 03:14:33;;;;;;;0.50;0.50;;;10.90;73.60;;;10.44;59.36;93041.78;5035036;28;20267;-85
2022/03/31 03:17:00;;;;;;;0.60;0.60;;;10.90;73.50;;;10.46;59.27;93037.09;5057137;28;20196;-85
2022/03/31 03:19:28;;;;;;;0.60;0.60;;;11.00;73.50;;;10.50;59.38;93040.06;5034369;28;20220;-86
2022/03/31 03:21:55;;;;;;;0.50;0.50;;;11.00;73.50;;;10.51;59.42;93039.00;5043306;28;20203;-85
2022/03/31 03:24:22;;;;;;;0.50;0.50;;;11.00;73.50;;;10.35;59.38;93004.66;5054451;28;20337;-85
2022/03/31 03:26:49;;;;;;;0.50;0.50;;;11.00;73.50;;;10.54;59.04;93034.06;5054225;28;20294;-85
2022/03/31 03:29:16;;;;;;;0.60;0.60;;;11.00;73.40;;;10.52;59.08;93022.25;5053231;28;20396;-85
2022/03/31 03:31:43;;;;;;;0.50;0.50;;;11.10;73.40;;;10.56;59.25;93026.00;5048233;28;20192;-85
2022/03/31 03:34:11;;;;;;;0.55;0.55;;;11.10;73.40;;;10.53;59.19;93023.84;5051191;28;20216;-84
2022/03/31 03:36:38;;;;;;;0.50;0.50;;;11.10;73.40;;;10.52;59.30;93022.25;5037565;28;20210;-85
2022/03/31 03:39:06;;;;;;;0.50;0.50;;;11.10;73.30;;;10.53;59.01;93029.88;5054435;28;20208;-85
2022/03/31 03:41:33;;;;;;;0.50;0.50;;;11.10;73.30;;;10.39;59.22;93005.81;5087966;28;20249;-86
2022/03/31 03:44:00;;;;;;;0.50;0.50;;;11.10;73.30;;;10.51;59.09;93018.84;5054480;28;20243;-85
2022/03/31 03:46:27;;;;;;;0.70;0.70;;;11.10;74.20;;;10.50;59.09;93027.72;5053727;28;20192;-84
2022/03/31 03:48:54;;;;;;;0.40;0.40;;;11.10;73.30;;;10.49;58.89;93026.13;5053584;28;20258;-85
2022/03/31 03:51:24;;;;;;;0.60;0.60;;;11.10;73.30;;;10.49;59.24;93025.34;5050810;28;20250;-84
2022/03/31 03:53:52;;;;;;;0.50;0.50;;;11.00;73.20;;;10.50;59.54;93019.09;5066672;28;20217;-86
2022/03/31 03:56:20;;;;;;;0.50;0.50;;;11.00;73.30;;;10.36;59.14;93006.28;5048182;28;20242;-85
2022/03/31 03:58:48;;;;;;;0.40;0.40;;;11.00;73.40;;;10.51;59.24;93025.88;5045354;28;20223;-85
2022/03/31 04:01:15;;;;;;;0.50;0.50;;;11.00;73.40;;;10.50;59.24;93019.09;5065993;28;20214;-84
2022/03/31 04:03:42;;;;;;;0.68;0.68;;;11.00;73.30;;;10.53;59.34;93019.41;5073674;28;20683;-85
2022/03/31 04:06:11;;;;;;;0.50;0.50;;;11.10;73.40;;;10.54;59.05;93022.81;5030773;28;20228;-85
2022/03/31 04:08:39;;;;;;;0.70;0.70;;;11.00;73.40;;;10.52;59.14;93017.81;5070650;28;20278;-85
2022/03/31 04:11:06;;;;;;;0.68;0.68;;;11.00;73.40;;;10.54;59.08;93014.94;5070360;28;20200;-84
2022/03/31 04:13:33;;;;;;;0.50;0.50;;;11.10;73.40;;;10.50;59.31;93009.38;5070359;28;20196;-85
2022/03/31 04:16:00;;;;;;;0.40;0.40;;;11.00;73.30;;;10.51;59.39;93004.91;5066404;28;20200;-84
2022/03/31 04:18:27;;;;;;;0.50;0.50;;;11.10;73.40;;;10.47;59.28;92999.34;5048942;28;20207;-84
2022/03/31 04:20:54;;;;;;;0.50;0.50;;;11.10;73.40;;;10.52;59.10;93004.69;5042218;28;20319;-85
2022/03/31 04:23:21;;;;;;;0.60;0.60;;;11.10;73.40;;;10.51;59.38;93004.91;5033718;28;20279;-85
2022/03/31 04:25:49;;;;;;;0.60;0.60;;;11.00;73.40;;;10.53;59.31;93008.09;5042951;28;20198;-84
2022/03/31 04:28:16;;;;;;;0.80;0.80;;;11.00;73.40;;;10.54;59.38;93009.69;5073369;28;20226;-84
2022/03/31 04:30:43;;;;;;;0.50;0.50;;;11.10;73.50;;;10.51;59.36;93004.91;5056942;28;20230;-85
2022/03/31 04:33:10;;;;;;;0.60;0.60;;;11.00;73.50;;;10.39;59.22;92987.44;5054061;28;20601;-84
2022/03/31 04:35:37;;;;;;;0.50;0.50;;;11.10;73.60;;;10.52;59.67;93004.69;5036280;28;20690;-84
2022/03/31 04:38:05;;;;;;;0.50;0.50;;;11.10;73.50;;;10.56;59.39;93005.81;5052879;28;20234;-84
2022/03/31 04:40:34;;;;;;;0.80;0.80;;;11.10;73.50;;;10.57;59.12;93007.41;5058398;28;20574;-84
2022/03/31 04:43:01;;;;;;;0.50;0.50;;;11.10;74.40;;;10.56;59.19;93005.03;5067832;28;20191;-84
2022/03/31 04:45:28;;;;;;;0.60;0.60;;;11.10;73.50;;;10.51;59.45;92992.63;5069968;28;20226;-84
2022/03/31 04:47:55;;;;;;;0.50;0.50;;;11.10;73.60;;;10.57;59.61;92996.91;5042903;28;20199;-84
2022/03/31 04:50:23;;;;;;;0.50;0.50;;;11.10;73.50;;;10.56;59.44;93000.56;5036372;28;20219;-85
2022/03/31 04:52:50;;;;;;;0.50;0.50;;;11.10;73.60;;;10.57;59.50;92998.75;5036038;28;20281;-84
2022/03/31 04:55:18;;;;;;;0.70;0.70;;;11.10;73.50;;;10.53;59.29;92993.19;5041382;28;20219;-85
2022/03/31 04:57:46;;;;;;;0.50;0.50;;;11.10;73.50;;;10.54;59.31;92999.22;5052867;28;20261;-84
2022/03/31 05:00:13;;;;;;;0.65;0.65;;;11.10;73.40;;;10.52;59.51;92996.84;5052656;28;20323;-84
2022/03/31 05:02:41;;;;;;;0.60;0.60;;;11.10;73.40;;;10.49;59.50;92991.28;5035387;28;20198;-85
2022/03/31 05:05:08;;;;;;;0.70;0.70;;;11.10;73.40;;;10.48;59.29;92995.72;5035683;28;20222;-84
2022/03/31 05:07:35;;;;;;;0.50;0.50;;;11.00;73.30;;;10.48;59.62;93008.03;5055103;28;20720;-84
2022/03/31 05:10:03;;;;;;;0.63;0.63;;;11.00;73.40;;;10.47;59.57;93001.19;5084396;28;20226;-85
2022/03/31 05:12:30;;;;;;;0.60;0.60;;;11.00;73.50;;;10.46;59.47;93003.03;5032197;28;20192;-85
2022/03/31 05:14:57;;;;;;;0.70;0.70;;;11.00;73.50;;;10.36;59.59;92982.69;5066956;28;20220;-85
2022/03/31 05:17:27;;;;;;;0.60;0.60;;;11.00;73.50;;;10.47;59.69;93001.97;5016179;28;20192;-84
2022/03/31 05:19:54;;;;;;;0.70;0.70;;;11.00;73.50;;;10.37;59.35;92979.03;5032168;28;20717;-85
2022/03/31 05:22:21;;;;;;;0.50;0.50;;;11.00;73.50;;;10.42;59.39;92999.28;5038273;28;20243;-84
2022/03/31 05:24:48;;;;;;;0.60;0.60;;;11.00;73.50;;;10.34;59.48;92986.53;5016040;28;20224;-84
2022/03/31 05:27:15;;;;;;;0.70;0.70;;;11.00;73.50;;;10.42;59.62;92996.66;5063154;28;20258;-84
2022/03/31 05:29:42;;;;;;;0.80;0.80;;;11.00;73.50;;;10.40;59.58;93002.16;5069804;28;20227;-85
2022/03/31 05:32:11;;;;;;;0.70;0.70;;;11.00;73.50;;;10.39;59.51;93005.00;5048339;28;20272;-84
2022/03/31 05:34:38;;;;;;;0.80;0.80;;;11.00;73.60;;;10.27;59.42;92986.72;5065817;28;20624;-85
2022/03/31 05:37:05;;;;;;;0.60;0.60;;;11.00;73.60;;;10.39;59.53;93008.41;5015760;28;20317;-84
2022/03/31 05:39:34;;;;;;;0.82;0.82;;;11.00;73.60;;;10.37;59.13;93007.06;5034293;28;20223;-84
2022/03/31 05:42:02;;;;;;;0.70;0.70;;;10.90;73.60;;;10.32;59.95;92999.88;5037668;28;20704;-85
2022/03/31 05:44:30;;;;;;;0.70;0.70;;;10.90;73.70;;;10.36;59.94;93000.22;5068962;28;20223;-85
2022/03/31 05:46:58;;;;;;;0.60;0.60;;;10.90;73.70;;;10.32;59.67;92996.47;5059962;28;20642;-84
2022/03/31 05:49:25;;;;;;;0.70;0.70;;;10.90;73.60;;;10.28;59.94;93006.66;5048551;28;20282;-85
2022/03/31 05:51:52;;;;;;;0.50;0.50;;;10.90;73.60;;;10.29;59.78;93004.81;5058115;28;20209;-85
2022/03/31 05:54:19;;;;;;;0.80;0.80;;;10.90;73.80;;;10.26;59.77;93000.84;5037607;28;20220;-85
2022/03/31 05:56:48;;;;;;;0.65;0.65;;;10.90;73.80;;;10.27;59.94;93002.44;5051868;28;20599;-85
2022/03/31 05:59:15;;;;;;;0.70;0.70;;;10.90;73.90;;;10.27;59.85;92999.03;5031582;28;20256;-84
2022/03/31 06:01:43;;;;;;;0.60;0.60;;;10.80;73.90;;;10.28;60.04;92997.97;5050604;28;20426;-85
2022/03/31 06:04:10;;;;;;;0.50;0.50;;;10.80;73.90;;;10.24;59.90;92993.22;5031269;28;20208;-85
2022/03/31 06:06:38;;;;;;;0.60;0.60;;;10.80;73.80;;;10.21;60.12;92992.91;5032733;28;20651;-84
2022/03/31 06:09:05;;;;;;;0.70;0.70;;;10.80;73.80;;;10.21;60.08;92988.44;5035074;28;20262;-85
2022/03/31 06:11:32;;;;;;;0.65;0.65;;;10.80;73.80;;;10.13;60.10;92982.81;5019149;28;20196;-85
2022/03/31 06:14:00;;;;;;;0.70;0.70;;;10.80;73.80;;;10.21;59.88;92987.66;5031720;28;20224;-85
2022/03/31 06:16:27;;;;;;;0.52;0.52;;;10.80;73.90;;;10.21;59.95;92991.06;5034274;28;20190;-85
2022/03/31 06:18:54;;;;;;;0.70;0.70;;;10.80;73.90;;;10.24;60.02;93000.28;5033973;28;20607;-84
2022/03/31 06:21:21;;;;;;;0.50;0.50;;;10.80;73.90;;;10.11;59.98;92985.66;5034762;28;20266;-85
2022/03/31 06:23:49;;;;;;;0.60;0.60;;;10.70;73.80;;;10.23;59.90;93002.09;5068227;28;20258;-84
2022/03/31 06:26:16;;;;;;;0.40;0.40;;;10.80;73.90;;;10.19;59.73;93006.25;5064343;28;20694;-85
2022/03/31 06:28:44;;;;;;;0.50;0.50;;;10.80;73.90;;;10.23;59.91;93004.72;5051492;28;20216;-84
2022/03/31 06:31:11;;;;;;;0.50;0.50;;;10.80;73.90;;;10.22;59.99;93000.50;5032098;28;20228;-84
2022/03/31 06:33:38;;;;;;;0.50;0.50;;;10.70;73.80;;;10.19;60.11;92995.75;5051006;28;20632;-84
2022/03/31 06:36:06;;;;;;;0.70;0.70;;;10.70;73.80;;;10.18;59.95;92999.41;5028181;28;20207;-85
2022/03/31 06:38:33;;;;;;;0.70;0.70;;;10.80;73.90;;;10.16;60.04;92988.38;5034872;28;20290;-85
2022/03/31 06:41:06;;;;;;;0.55;0.55;;;10.70;74.70;;;10.15;60.05;92994.63;5051458;28;20221;-84
2022/03/31 06:43:35;;;;;;;0.60;0.60;;;10.80;73.90;;;10.18;60.13;93001.22;5069911;28;20541;-84
2022/03/31 06:46:02;;;;;;;0.60;0.60;;;10.70;73.90;;;10.15;59.99;93009.56;5069571;28;20193;-85
2022/03/31 06:48:30;;;;;;;0.60;0.60;;;10.70;73.80;;;10.15;60.00;93012.97;5055391;28;20199;-86
2022/03/31 06:50:58;;;;;;;0.70;0.70;;;10.70;73.90;;;10.16;59.84;93013.78;5052836;28;20249;-85
2022/03/31 06:53:26;;;;;;;0.50;0.50;;;10.70;74.00;;;10.15;60.08;93010.34;5038685;28;20220;-85
2022/03/31 06:55:53;;;;;;;0.60;0.60;;;10.70;74.00;;;10.16;60.14;93011.16;5051886;28;20207;-85
2022/03/31 06:58:27;;;;;;;0.50;0.50;;;10.70;73.90;;;10.16;60.18;93021.63;5040938;28;20191;-85
2022/03/31 07:00:54;;;;;;;0.57;0.57;;;10.80;74.00;;;10.14;60.12;93013.22;5039202;28;20247;-84
2022/03/31 07:03:21;;;;;;;0.50;0.50;;;10.70;73.90;;;10.10;60.01;93013.66;5038350;28;20196;-84
2022/03/31 07:05:49;;;;;;;0.60;0.60;;;10.70;73.80;;;10.09;60.23;93016.53;5054229;28;20665;-85
2022/03/31 07:08:16;;;;;;;0.60;0.60;;;10.70;73.80;;;10.09;60.01;93014.72;5038312;28;20684;-84
2022/03/31 07:10:44;;;;;;;0.50;0.50;;;10.70;73.80;;;10.05;59.92;93012.81;5054991;28;20203;-85
2022/03/31 07:13:12;;;;;;;0.50;0.50;;;10.60;73.70;;;10.00;59.93;93012.72;5054964;28;20196;-84
2022/03/31 07:15:39;;;;;;;0.60;0.60;;;10.70;73.80;;;9.99;60.10;93011.91;5020652;28;20219;-85
2022/03/31 07:18:06;;;;;;;0.60;0.60;;;10.60;73.70;;;9.98;60.01;93020.78;5021044;28;20219;-85
2022/03/31 07:20:35;;;;;;;0.70;0.70;;;10.60;73.80;;;9.96;60.09;93015.00;5021258;28;20250;-85
2022/03/31 07:23:03;;;;;;;0.50;0.50;;;10.60;73.90;;;9.94;60.07;93015.22;5055341;28;20310;-84
2022/03/31 07:25:30;;;;;;;0.70;0.70;;;10.60;73.80;;;9.90;60.09;93011.50;5057650;28;20216;-84
2022/03/31 07:27:58;;;;;;;0.50;0.50;;;10.50;73.80;;;9.91;60.27;93014.91;5054388;28;20196;-85
2022/03/31 07:30:26;;;;;;;0.52;0.52;;;10.50;73.80;;;9.86;60.28;93010.38;5073037;28;20716;-84
2022/03/31 07:32:58;;;;;;;0.50;0.50;;;10.50;73.90;;;9.82;60.40;93005.84;5074151;28;20654;-84
2022/03/31 07:35:29;;;;;;;0.50;0.50;;;10.50;74.20;;;9.83;60.13;93005.59;5052665;28;20212;-84
2022/03/31 07:37:57;;;;;;;0.47;0.47;;;10.50;74.30;;;9.92;60.38;93011.25;5072451;28;20203;-85
2022/03/31 07:40:27;;;;;;;0.50;0.50;;;10.50;74.10;;;9.91;60.47;93017.50;5031039;28;20713;-84
2022/03/31 07:42:54;;;;;;;0.57;0.57;;;10.50;74.40;;;9.96;60.53;93017.63;5017717;28;20304;-84
2022/03/31 07:45:23;;;;;;;0.50;0.50;;;10.50;74.30;;;9.97;60.38;93023.66;5081555;28;20247;-85
2022/03/31 07:47:50;;;;;;;0.50;0.50;;;10.50;74.30;;;9.96;60.27;93017.63;5070638;28;20295;-84
2022/03/31 07:50:19;;;;;;;0.70;0.70;;;10.50;74.20;;;9.96;60.24;93019.44;5088048;28;20212;-84
2022/03/31 07:52:46;;;;;;;0.50;0.50;;;10.50;74.40;;;9.97;60.28;93015.78;5057490;28;20272;-84
2022/03/31 07:55:16;;;;;;;0.50;0.50;;;10.50;74.30;;;9.94;60.43;93017.06;5046368;28;20314;-85
2022/03/31 07:57:46;;;;;;;0.70;0.70;;;10.50;74.40;;;9.94;60.56;93014.44;5053696;28;20207;-85
2022/03/31 08:00:15;;;;;;;0.80;0.80;;;10.50;74.40;;;9.92;60.51;93012.06;5053935;28;20319;-85
2022/03/31 08:02:45;;;;;;;0.60;0.60;;;10.50;74.50;;;9.94;60.36;93024.91;5053888;28;20254;-84
2022/03/31 08:05:23;;;;;;;0.70;0.70;;;10.50;74.60;;;9.98;60.42;93025.25;5069528;28;20322;-84
2022/03/31 08:07:51;;;;;;;0.80;0.80;;;10.50;75.00;;;10.00;60.56;93023.19;5070076;28;20196;-85
2022/03/31 08:10:20;;;;;;;0.50;0.50;;;10.50;74.90;;;10.02;60.61;93026.34;5053588;28;20252;-85
2022/03/31 08:12:47;;;;;;;0.50;0.50;;;10.50;74.90;;;10.03;60.67;93018.28;5036940;28;20204;-84
2022/03/31 08:15:17;;;;;;;0.50;0.50;;;10.50;75.00;;;10.06;60.71;93017.78;5052481;28;20236;-84
2022/03/31 08:17:46;;;;;;;0.80;0.80;;;10.50;75.00;;;10.08;60.76;93021.00;5036797;28;20199;-85
2022/03/31 08:20:14;;;;;;;0.80;0.80;;;10.60;75.00;;;10.08;60.76;93018.38;5054081;28;20215;-83
2022/03/31 08:22:42;;;;;;;0.50;0.50;;;10.60;75.00;;;10.13;60.80;93025.53;5068734;28;20251;-85
2022/03/31 08:25:11;;;;;;;0.60;0.60;;;10.60;75.00;;;10.14;60.79;93021.84;5073723;28;20605;-85
2022/03/31 08:27:39;;;;;;;0.50;0.50;;;10.60;75.00;;;10.15;60.47;93020.03;5046435;28;20221;-85
2022/03/31 08:30:16;;;;;;;0.50;0.50;;;10.60;75.00;;;10.09;60.63;93011.28;5033703;28;20209;-85
2022/03/31 08:32:46;;;;;;;0.50;0.50;;;10.60;75.00;;;10.14;61.03;93015.81;5062943;28;20251;-84
2022/03/31 08:35:16;;;;;;;0.50;0.50;;;10.60;75.00;;;10.10;60.87;93015.50;5056505;28;20236;-84
2022/03/31 08:37:43;;;;;;;0.60;0.60;;;10.70;75.00;;;10.11;60.93;93014.47;5038972;28;20204;-84
2022/03/31 08:40:12;;;;;;;0.70;0.70;;;10.70;75.00;;;10.18;60.97;93014.31;5052085;28;20253;-84
2022/03/31 08:42:42;;;;;;;0.70;0.70;;;10.70;75.00;;;10.18;60.74;93014.31;5036459;28;20269;-84
2022/03/31 08:45:14;;;;;;;0.50;0.50;;;10.70;75.00;;;10.22;60.80;93016.22;5035561;28;20298;-85
2022/03/31 08:47:46;;;;;;;0.55;0.55;;;10.70;75.00;;;10.26;60.89;93016.56;5037255;28;20207;-84
2022/03/31 08:50:21;;;;;;;0.60;0.60;;;10.70;75.00;;;10.28;60.80;93017.13;5037268;28;20294;-84
2022/03/31 08:52:49;;;;;;;0.60;0.60;;;10.70;75.10;;;10.32;60.87;93012.22;5032763;28;20285;-85
2022/03/31 08:55:18;;;;;;;0.60;0.60;;;10.80;75.10;;;10.27;61.03;92994.56;5065914;28;20304;-84
2022/03/31 08:57:49;;;;;;;0.50;0.50;;;10.80;75.20;;;10.36;60.87;93014.16;5052374;28;20681;-85
2022/03/31 09:00:22;;;;;;;0.50;0.50;;;10.80;75.10;;;10.38;60.99;93009.44;5036196;28;20234;-85
2022/03/31 09:03:02;;;;;;;0.50;0.50;;;10.80;75.20;;;10.36;61.01;93008.91;5051802;28;20619;-85
2022/03/31 09:05:42;;;;;;;0.60;0.60;;;10.80;75.20;;;10.36;60.67;93010.69;5068477;28;20219;-85
2022/03/31 09:08:11;;;;;;;0.70;0.70;;;10.80;75.10;;;10.36;60.92;93010.69;5051904;28;20289;-84
2022/03/31 09:10:49;;;;;;;0.60;0.60;;;10.90;75.10;;;10.34;60.73;93005.69;5016174;28;20220;-85
2022/03/31 09:13:29;;;;;;;0.50;0.50;;;10.90;75.20;;;10.36;60.80;93002.81;5016252;28;20224;-84
2022/03/31 09:16:06;;;;;;;0.50;0.50;;;10.90;75.20;;;10.33;60.86;92996.25;5061789;28;20665;-84
2022/03/31 09:18:36;;;;;;;0.50;0.50;;;10.90;75.20;;;10.30;61.05;92994.09;5016619;28;20496;-85
2022/03/31 09:21:09;;;;;;;0.60;0.60;;;10.90;75.00;;;10.34;60.77;93002.25;5033309;28;20277;-85
2022/03/31 09:23:43;;;;;;;0.60;0.60;;;10.90;75.00;;;10.34;60.80;93003.06;5068943;28;20230;-86
2022/03/31 09:26:16;;;;;;;0.70;0.70;;;10.90;75.20;;;10.31;60.83;92987.03;5065895;28;20187;-85
2022/03/31 09:28:47;;;;;;;0.60;0.60;;;10.90;75.20;;;10.40;60.89;93001.38;5054734;28;20211;-85
2022/03/31 09:31:25;;;;;;;0.60;0.60;;;10.90;75.20;;;10.43;60.76;93002.72;5045617;28;20265;-85
2022/03/31 09:33:58;;;;;;;0.50;0.50;;;10.90;75.20;;;10.40;60.84;92999.53;5068463;28;20230;-84
2022/03/31 09:36:26;;;;;;;0.70;0.70;;;10.90;75.20;;;10.40;61.03;93006.63;5051492;28;20233;-84
2022/03/31 09:39:02;;;;;;;0.60;0.60;;;10.90;75.10;;;10.39;60.88;93002.41;5066512;28;20231;-84
2022/03/31 09:41:33;;;;;;;0.57;0.57;;;10.90;75.20;;;10.40;61.11;93006.63;5035651;28;20314;-84
2022/03/31 09:44:04;;;;;;;0.55;0.55;;;10.90;75.00;;;10.42;60.81;93007.16;5052025;28;20270;-84
2022/03/31 09:46:38;;;;;;;0.50;0.50;;;10.90;75.10;;;10.47;60.87;93007.22;5032380;28;20204;-86
2022/03/31 09:49:20;;;;;;;0.60;0.60;;;10.90;75.20;;;10.50;60.68;93003.34;5064606;28;20318;-85
2022/03/31 09:51:53;;;;;;;0.70;0.70;;;10.90;75.20;;;10.52;60.66;93002.09;5059350;28;20184;-84
2022/03/31 09:54:26;;;;;;;0.50;0.50;;;11.00;75.30;;;10.49;60.64;92996.53;5032069;28;20276;-85
2022/03/31 09:56:56;;;;;;;0.60;0.60;;;11.00;75.10;;;10.56;60.65;93003.19;5042050;28;20183;-85
2022/03/31 09:59:31;;;;;;;0.70;0.70;;;11.00;75.00;;;10.60;60.80;92998.25;5047829;28;20281;-84
2022/03/31 10:01:59;;;;;;;0.60;0.60;;;11.00;75.20;;;10.64;60.46;93006.44;5053128;28;20211;-84
2022/03/31 10:04:27;;;;;;;0.60;0.60;;;11.00;74.90;;;10.60;60.61;92982.53;5047447;28;20500;-84
2022/03/31 10:06:55;;;;;;;0.60;0.60;;;11.10;74.80;;;10.66;60.31;92999.91;5068247;28;20275;-84
2022/03/31 10:09:23;;;;;;;0.68;0.68;;;11.10;74.70;;;10.65;60.35;92992.31;5035055;28;20223;-85
2022/03/31 10:12:11;;;;;;;0.70;0.70;;;11.10;74.60;;;10.64;60.26;92993.34;5047771;28;20233;-84
2022/03/31 10:15:18;;;;;;;0.60;0.60;;;11.10;74.60;;;10.60;60.37;92989.63;5064611;28;20220;-85
2022/03/31 10:17:47;;;;;;;0.60;0.60;;;11.10;74.40;;;10.58;60.32;92989.81;5067928;28;20210;-85
2022/03/31 10:20:16;;;;;;;0.50;0.50;;;11.10;74.30;;;10.57;60.50;92988.25;5071678;28;20258;-85
2022/03/31 10:25:48;;;;;;;0.50;0.50;;;11.10;74.30;;;10.55;60.18;92979.84;5083875;28;20245;-84
2022/03/31 10:28:18;;;;;;;0.50;0.50;;;11.10;74.10;;;10.54;60.11;92979.03;5088853;28;20191;-85
2022/03/31 10:31:00;;;;;;;0.60;0.60;;;11.10;74.20;;;10.54;60.21;92980.88;5054464;28;20689;-83
2022/03/31 10:33:44;;;;;;;0.57;0.57;;;11.10;74.20;;;10.54;60.27;92973.78;5061215;28;20256;-85
2022/03/31 10:36:16;;;;;;;0.57;0.57;;;11.10;74.20;;;10.55;59.87;92974.59;5056334;28;20223;-84